createdAt,value
2018-02-08T00:02:13.959Z,-6.50
2018-02-08T00:04:42.270Z,-6.50
2018-02-08T00:07:10.615Z,-6.50
2018-02-08T00:09:38.933Z,-6.50
2018-02-08T00:12:07.266Z,-6.60
2018-02-08T00:14:35.584Z,-6.60
2018-02-08T00:17:03.928Z,-6.60
2018-02-08T00:19:32.259Z,-6.60
2018-02-08T00:22:00.614Z,-6.70
2018-02-08T00:24:28.945Z,-6.70
2018-02-08T00:26:57.354Z,-6.80
2018-02-08T00:29:25.662Z,-6.90
2018-02-08T00:31:53.979Z,-6.90
2018-02-08T00:34:22.319Z,-6.90
2018-02-08T00:36:50.641Z,-6.90
2018-02-08T00:39:18.975Z,-6.90
2018-02-08T00:41:47.291Z,-6.90
2018-02-08T00:44:15.662Z,-7.00
2018-02-08T00:46:43.976Z,-7.00
2018-02-08T00:49:12.311Z,-7.00
2018-02-08T00:51:40.625Z,-7.00
2018-02-08T00:54:08.961Z,-7.10
2018-02-08T00:56:37.279Z,-7.10
2018-02-08T00:59:05.609Z,-7.10
2018-02-08T01:01:33.932Z,-7.10
2018-02-08T01:04:02.271Z,-7.10
2018-02-08T01:06:29.822Z,-7.10
2018-02-08T01:08:58.175Z,-7.10
2018-02-08T01:11:26.488Z,-7.10
2018-02-08T01:13:54.826Z,-7.20
2018-02-08T01:16:23.148Z,-7.20
2018-02-08T01:18:51.488Z,-7.20
2018-02-08T01:21:19.806Z,-7.20
2018-02-08T01:23:48.150Z,-7.20
2018-02-08T01:26:16.454Z,-7.30
2018-02-08T01:28:44.791Z,-7.30
2018-02-08T01:31:13.108Z,-7.40
2018-02-08T01:33:41.451Z,-7.50
2018-02-08T01:36:09.763Z,-7.50
2018-02-08T01:38:38.093Z,-7.60
2018-02-08T01:41:06.417Z,-7.60
2018-02-08T01:43:34.754Z,-7.60
2018-02-08T01:46:03.062Z,-7.60
2018-02-08T01:48:31.395Z,-7.60
2018-02-08T01:50:59.715Z,-7.60
2018-02-08T01:53:28.055Z,-7.60
2018-02-08T01:55:56.371Z,-7.60
2018-02-08T01:58:24.703Z,-7.60
2018-02-08T02:00:53.023Z,-7.60
2018-02-08T02:03:21.359Z,-7.60
2018-02-08T02:05:49.679Z,-7.60
2018-02-08T02:08:18.017Z,-7.60
2018-02-08T02:10:46.331Z,-7.60
2018-02-08T02:13:14.673Z,-7.70
2018-02-08T02:15:43.011Z,-7.70
2018-02-08T02:18:11.355Z,-7.70
2018-02-08T02:20:39.672Z,-7.70
2018-02-08T02:23:07.985Z,-7.80
2018-02-08T02:25:36.319Z,-7.80
2018-02-08T02:28:04.646Z,-7.80
2018-02-08T02:30:32.987Z,-7.90
2018-02-08T02:33:01.309Z,-8.00
2018-02-08T02:35:29.647Z,-8.00
2018-02-08T02:37:57.970Z,-8.00
2018-02-08T02:40:26.316Z,-8.00
2018-02-08T02:42:54.635Z,-8.10
2018-02-08T02:45:22.977Z,-8.10
2018-02-08T02:47:51.299Z,-8.20
2018-02-08T02:50:19.635Z,-8.20
2018-02-08T02:52:47.948Z,-8.20
2018-02-08T02:55:16.296Z,-8.20
2018-02-08T02:57:44.624Z,-8.30
2018-02-08T03:00:12.958Z,-8.30
2018-02-08T03:02:41.312Z,-8.40
2018-02-08T03:05:09.654Z,-8.40
2018-02-08T03:07:37.976Z,-8.40
2018-02-08T03:10:06.314Z,-8.40
2018-02-08T03:12:34.627Z,-8.40
2018-02-08T03:15:02.978Z,-8.40
2018-02-08T03:17:31.303Z,-8.40
2018-02-08T03:19:59.646Z,-8.40
2018-02-08T03:22:27.962Z,-8.50
2018-02-08T03:24:56.323Z,-8.50
2018-02-08T03:27:24.646Z,-8.50
2018-02-08T03:29:52.992Z,-8.50
2018-02-08T03:32:21.318Z,-8.50
2018-02-08T03:34:49.651Z,-8.50
2018-02-08T03:37:17.966Z,-8.50
2018-02-08T03:39:46.304Z,-8.50
2018-02-08T03:42:14.630Z,-8.60
2018-02-08T03:44:42.967Z,-8.70
2018-02-08T03:47:11.287Z,-8.70
2018-02-08T03:49:39.619Z,-8.70
2018-02-08T03:52:07.940Z,-8.70
2018-02-08T03:54:36.279Z,-8.70
2018-02-08T03:57:04.596Z,-8.70
2018-02-08T03:59:33.583Z,-8.70
2018-02-08T04:02:01.894Z,-8.80
2018-02-08T04:04:30.231Z,-8.80
2018-02-08T04:06:58.553Z,-8.80
2018-02-08T04:09:26.899Z,-8.80
2018-02-08T04:11:55.231Z,-8.80
2018-02-08T04:14:23.545Z,-8.80
2018-02-08T04:16:51.897Z,-8.80
2018-02-08T04:19:20.218Z,-8.80
2018-02-08T04:21:48.566Z,-8.80
2018-02-08T04:24:16.883Z,-8.90
2018-02-08T04:26:45.233Z,-8.80
2018-02-08T04:29:13.596Z,-8.90
2018-02-08T04:31:41.984Z,-9.00
2018-02-08T04:34:10.334Z,-9.00
2018-02-08T04:36:37.938Z,-9.00
2018-02-08T04:39:18.185Z,-9.10
2018-02-08T04:41:58.379Z,-9.10
2018-02-08T04:44:38.543Z,-9.10
2018-02-08T04:47:28.536Z,-9.10
2018-02-08T04:49:56.849Z,-9.10
2018-02-08T04:52:25.191Z,-9.10
2018-02-08T04:54:53.515Z,-9.10
2018-02-08T04:57:21.855Z,-9.10
2018-02-08T04:59:50.175Z,-9.10
2018-02-08T05:02:20.160Z,-9.20
2018-02-08T05:04:48.480Z,-9.20
2018-02-08T05:07:16.818Z,-9.20
2018-02-08T05:09:45.151Z,-9.20
2018-02-08T05:12:13.627Z,-9.20
2018-02-08T05:14:42.167Z,-9.20
2018-02-08T05:17:10.522Z,-9.20
2018-02-08T05:19:38.854Z,-9.20
2018-02-08T05:22:07.199Z,-9.30
2018-02-08T05:24:35.506Z,-9.30
2018-02-08T05:27:03.842Z,-9.30
2018-02-08T05:29:32.161Z,-9.30
2018-02-08T05:32:00.499Z,-9.30
2018-02-08T05:34:28.810Z,-9.30
2018-02-08T05:36:57.156Z,-9.30
2018-02-08T05:39:25.479Z,-9.30
2018-02-08T05:41:53.822Z,-9.30
2018-02-08T05:44:22.138Z,-9.20
2018-02-08T05:46:50.484Z,-9.20
2018-02-08T05:49:18.803Z,-9.20
2018-02-08T05:51:47.144Z,-9.20
2018-02-08T05:54:15.462Z,-9.20
2018-02-08T05:56:43.859Z,-9.20
2018-02-08T05:59:12.704Z,-9.20
2018-02-08T06:01:41.213Z,-9.30
2018-02-08T06:04:09.579Z,-9.30
2018-02-08T06:06:37.915Z,-9.30
2018-02-08T06:09:06.235Z,-9.40
2018-02-08T06:11:34.575Z,-9.50
2018-02-08T06:14:02.893Z,-9.60
2018-02-08T06:16:31.211Z,-9.60
2018-02-08T06:18:59.573Z,-9.60
2018-02-08T06:21:27.890Z,-9.60
2018-02-08T06:23:56.238Z,-9.60
2018-02-08T06:26:24.560Z,-9.70
2018-02-08T06:28:52.902Z,-9.70
2018-02-08T06:31:21.222Z,-9.70
2018-02-08T06:33:49.559Z,-9.70
2018-02-08T06:36:17.878Z,-9.70
2018-02-08T06:38:46.244Z,-9.70
2018-02-08T06:41:14.634Z,-9.70
2018-02-08T06:43:43.044Z,-9.70
2018-02-08T06:46:12.749Z,-9.70
2018-02-08T06:48:41.111Z,-9.80
2018-02-08T06:51:09.464Z,-9.70
2018-02-08T06:53:37.803Z,-9.70
2018-02-08T06:56:06.117Z,-9.70
2018-02-08T06:58:34.456Z,-9.70
2018-02-08T07:01:02.785Z,-9.70
2018-02-08T07:03:31.127Z,-9.60
2018-02-08T07:05:59.452Z,-9.60
2018-02-08T07:08:27.793Z,-9.50
2018-02-08T07:10:56.124Z,-9.60
2018-02-08T07:13:24.471Z,-9.60
2018-02-08T07:15:52.801Z,-9.60
2018-02-08T07:18:21.138Z,-9.60
2018-02-08T07:20:49.456Z,-9.60
2018-02-08T07:23:17.799Z,-9.60
2018-02-08T07:25:46.105Z,-9.60
2018-02-08T07:28:14.458Z,-9.50
2018-02-08T07:30:42.787Z,-9.50
2018-02-08T07:33:11.128Z,-9.50
2018-02-08T07:35:39.440Z,-9.50
2018-02-08T07:38:07.786Z,-9.50
2018-02-08T07:40:36.110Z,-9.50
2018-02-08T07:43:04.454Z,-9.50
2018-02-08T07:45:32.877Z,-9.50
2018-02-08T07:48:01.227Z,-9.40
2018-02-08T07:50:29.551Z,-9.30
2018-02-08T07:52:57.894Z,-9.20
2018-02-08T07:55:26.231Z,-9.10
2018-02-08T07:57:54.577Z,-9.10
2018-02-08T08:00:22.906Z,-9.00
2018-02-08T08:02:51.220Z,-8.90
2018-02-08T08:05:19.566Z,-8.80
2018-02-08T08:07:47.886Z,-8.70
2018-02-08T08:10:16.240Z,-8.50
2018-02-08T08:12:44.566Z,-8.40
2018-02-08T08:15:12.908Z,-8.30
2018-02-08T08:17:41.233Z,-8.20
2018-02-08T08:20:09.571Z,-8.00
2018-02-08T08:22:37.898Z,-7.80
2018-02-08T08:25:06.234Z,-7.70
2018-02-08T08:27:34.552Z,-7.50
2018-02-08T08:30:02.895Z,-7.30
2018-02-08T08:32:31.232Z,-7.10
2018-02-08T08:34:59.576Z,-7.00
2018-02-08T08:37:27.896Z,-6.80
2018-02-08T08:39:56.243Z,-6.70
2018-02-08T08:42:24.562Z,-6.50
2018-02-08T08:44:52.900Z,-6.30
2018-02-08T08:47:21.215Z,-6.10
2018-02-08T08:49:49.562Z,-5.90
2018-02-08T09:02:37.044Z,-5.90
2018-02-08T09:05:05.359Z,-5.20
2018-02-08T09:07:32.887Z,-5.20
2018-02-08T09:10:01.204Z,-5.10
2018-02-08T09:12:29.496Z,-5.00
2018-02-08T09:14:57.812Z,-4.90
2018-02-08T09:17:26.117Z,-4.60
2018-02-08T09:19:54.432Z,-4.40
2018-02-08T09:22:22.728Z,-4.20
2018-02-08T09:24:51.044Z,-4.00
2018-02-08T09:27:19.336Z,-3.80
2018-02-08T09:29:47.651Z,-3.70
2018-02-08T09:32:15.943Z,-3.40
2018-02-08T09:34:44.263Z,-3.20
2018-02-08T09:37:12.560Z,-3.00
2018-02-08T09:39:40.874Z,-2.70
2018-02-08T09:42:09.163Z,-2.60
2018-02-08T09:44:36.703Z,-2.60
2018-02-08T09:47:05.000Z,-2.20
2018-02-08T09:49:33.321Z,-2.20
2018-02-08T09:52:01.616Z,-2.20
2018-02-08T09:54:29.935Z,-2.20
2018-02-08T09:56:58.228Z,-2.20
2018-02-08T09:59:26.542Z,-2.20
2018-02-08T10:01:54.832Z,-2.00
2018-02-08T10:04:23.119Z,-1.80
2018-02-08T10:06:51.432Z,-1.80
2018-02-08T10:09:19.728Z,-1.90
2018-02-08T10:11:48.085Z,-1.70
2018-02-08T10:14:16.376Z,-1.40
2018-02-08T10:16:44.692Z,-1.20
2018-02-08T10:19:12.980Z,-1.10
2018-02-08T10:21:41.292Z,-0.90
2018-02-08T10:24:09.584Z,-0.90
2018-02-08T10:26:37.892Z,-0.90
2018-02-08T10:29:06.183Z,-0.80
2018-02-08T10:31:34.592Z,-0.60
2018-02-08T10:34:02.885Z,-0.20
2018-02-08T10:36:31.192Z,0.10
2018-02-08T10:38:59.487Z,0.40
2018-02-08T10:41:27.860Z,0.40
2018-02-08T10:43:56.148Z,0.50
2018-02-08T10:46:23.687Z,0.50
2018-02-08T10:48:51.977Z,0.80
2018-02-08T10:51:20.288Z,1.00
2018-02-08T10:53:48.580Z,1.10
2018-02-08T10:56:16.890Z,1.20
2018-02-08T10:58:45.180Z,1.30
2018-02-08T11:01:13.500Z,1.40
2018-02-08T11:03:41.832Z,1.50
2018-02-08T11:06:09.373Z,1.50
2018-02-08T11:08:37.655Z,2.00
2018-02-08T11:11:05.195Z,1.90
2018-02-08T11:13:33.484Z,2.70
2018-02-08T11:16:01.792Z,2.80
2018-02-08T11:18:30.080Z,2.90
2018-02-08T11:20:58.392Z,3.10
2018-02-08T11:23:26.679Z,3.20
2018-02-08T11:25:54.987Z,3.20
2018-02-08T11:28:22.515Z,3.20
2018-02-08T11:30:50.824Z,2.90
2018-02-08T11:33:19.117Z,2.70
2018-02-08T11:35:47.432Z,2.70
2018-02-08T11:38:15.720Z,2.90
2018-02-08T11:40:44.048Z,3.10
2018-02-08T11:43:12.342Z,3.10
2018-02-08T11:45:40.663Z,3.20
2018-02-08T11:48:08.952Z,3.30
2018-02-08T11:50:37.245Z,3.30
2018-02-08T11:53:05.557Z,3.30
2018-02-08T11:55:33.851Z,3.20
2018-02-08T11:58:02.168Z,3.20
2018-02-08T12:00:30.460Z,3.30
2018-02-08T12:02:58.776Z,3.50
2018-02-08T12:05:27.072Z,3.70
2018-02-08T12:07:55.388Z,3.80
2018-02-08T12:10:23.671Z,3.90
2018-02-08T12:12:51.991Z,3.90
2018-02-08T12:15:20.285Z,3.70
2018-02-08T12:17:48.598Z,3.70
2018-02-08T12:20:16.928Z,3.80
2018-02-08T12:22:44.503Z,3.70
2018-02-08T12:25:12.791Z,4.20
2018-02-08T12:27:41.100Z,4.50
2018-02-08T12:30:09.388Z,4.60
2018-02-08T12:32:37.700Z,4.70
2018-02-08T12:35:05.991Z,4.70
2018-02-08T12:37:34.300Z,4.70
2018-02-08T12:40:02.589Z,4.60
2018-02-08T12:42:30.159Z,4.60
2018-02-08T12:44:58.456Z,4.60
2018-02-08T12:47:26.768Z,4.90
2018-02-08T12:49:55.060Z,5.10
2018-02-08T12:52:23.372Z,5.20
2018-02-08T12:54:51.660Z,5.40
2018-02-08T12:57:19.204Z,5.40
2018-02-08T12:59:47.499Z,5.90
2018-02-08T13:02:15.811Z,6.00
2018-02-08T13:04:44.103Z,6.10
2018-02-08T13:07:12.413Z,5.90
2018-02-08T13:09:40.705Z,5.80
2018-02-08T13:12:09.015Z,5.90
2018-02-08T13:14:37.309Z,6.10
2018-02-08T13:17:05.623Z,6.40
2018-02-08T13:19:33.911Z,6.50
2018-02-08T13:22:01.460Z,6.50
2018-02-08T13:24:29.747Z,6.70
2018-02-08T13:26:58.041Z,6.80
2018-02-08T13:29:26.352Z,6.80
2018-02-08T13:31:54.632Z,6.90
2018-02-08T13:34:22.943Z,6.90
2018-02-08T13:36:51.232Z,6.80
2018-02-08T13:39:24.147Z,6.70
2018-02-08T13:41:52.436Z,6.80
2018-02-08T13:44:20.748Z,6.60
2018-02-08T13:46:49.035Z,6.50
2018-02-08T13:49:19.873Z,6.30
2018-02-08T13:52:00.028Z,6.10
2018-02-08T13:54:44.003Z,5.80
2018-02-08T13:57:17.905Z,5.70
2018-02-08T13:59:46.815Z,5.60
2018-02-08T14:02:15.112Z,5.40
2018-02-08T14:04:43.432Z,5.20
2018-02-08T14:07:11.728Z,5.20
2018-02-08T14:09:40.036Z,5.20
2018-02-08T14:12:08.321Z,5.30
2018-02-08T14:14:36.631Z,5.30
2018-02-08T14:17:04.920Z,5.30
2018-02-08T14:19:33.224Z,5.30
2018-02-08T14:22:01.560Z,5.20
2018-02-08T14:24:29.848Z,5.20
2018-02-08T14:26:58.139Z,5.20
2018-02-08T14:29:26.444Z,5.30
2018-02-08T14:31:54.731Z,5.30
2018-02-08T14:34:23.045Z,5.20
2018-02-08T14:36:51.328Z,5.20
2018-02-08T14:39:19.642Z,5.10
2018-02-08T14:41:47.936Z,5.10
2018-02-08T14:44:16.241Z,5.10
2018-02-08T14:46:44.524Z,5.10
2018-02-08T14:49:12.840Z,4.90
2018-02-08T14:51:41.124Z,4.70
2018-02-08T14:54:09.472Z,4.70
2018-02-08T14:56:37.751Z,4.70
2018-02-08T14:59:06.036Z,4.60
2018-02-08T15:01:34.348Z,4.50
2018-02-08T15:04:02.636Z,4.50
2018-02-08T15:06:30.944Z,4.40
2018-02-08T15:08:59.218Z,4.30
2018-02-08T15:11:27.532Z,4.30
2018-02-08T15:13:55.816Z,4.20
2018-02-08T15:16:24.120Z,4.10
2018-02-08T15:18:52.408Z,4.00
2018-02-08T15:21:20.720Z,3.90
2018-02-08T15:23:49.003Z,3.80
2018-02-08T15:26:17.304Z,3.80
2018-02-08T15:28:45.588Z,3.70
2018-02-08T15:31:13.905Z,3.60
2018-02-08T15:33:42.196Z,3.40
2018-02-08T15:36:10.503Z,3.30
2018-02-08T15:38:38.800Z,3.10
2018-02-08T15:41:07.116Z,2.90
2018-02-08T15:43:35.414Z,2.70
2018-02-08T15:46:03.786Z,2.50
2018-02-08T15:48:32.044Z,2.30
2018-02-08T15:51:00.356Z,2.10
2018-02-08T15:53:27.886Z,2.10
2018-02-08T15:55:56.196Z,1.70
2018-02-08T15:58:24.488Z,1.50
2018-02-08T16:00:52.797Z,1.30
2018-02-08T16:03:21.092Z,1.20
2018-02-08T16:05:49.400Z,1.10
2018-02-08T16:08:17.688Z,0.90
2018-02-08T16:10:46.008Z,0.80
2018-02-08T16:13:13.535Z,0.70
2018-02-08T16:15:41.847Z,0.50
2018-02-08T16:18:10.144Z,0.40
2018-02-08T16:20:38.461Z,0.20
2018-02-08T16:23:06.756Z,0.10
2018-02-08T16:25:34.307Z,0.10
2018-02-08T16:28:02.595Z,-0.10
2018-02-08T16:30:30.916Z,-0.20
2018-02-08T16:32:59.212Z,-0.40
2018-02-08T16:35:27.528Z,-0.50
2018-02-08T16:37:55.829Z,-0.60
2018-02-08T16:40:24.127Z,-0.80
2018-02-08T16:42:52.444Z,-0.90
2018-02-08T16:45:20.735Z,-1.00
2018-02-08T16:47:49.060Z,-1.10
2018-02-08T16:50:17.351Z,-1.20
2018-02-08T16:52:45.667Z,-1.30
2018-02-08T16:55:13.971Z,-1.40
2018-02-08T16:57:42.281Z,-1.40
2018-02-08T17:00:10.570Z,-1.50
2018-02-08T17:02:38.880Z,-1.60
2018-02-08T17:05:07.184Z,-1.70
2018-02-08T17:07:34.733Z,-1.70
2018-02-08T17:10:03.026Z,-1.80
2018-02-08T17:12:31.341Z,-1.90
2018-02-08T17:14:59.639Z,-2.00
2018-02-08T17:17:27.952Z,-2.00
2018-02-08T17:19:56.243Z,-2.10
2018-02-08T17:22:24.560Z,-2.10
2018-02-08T17:24:52.851Z,-2.20
2018-02-08T17:27:21.164Z,-2.20
2018-02-08T17:29:49.455Z,-2.30
2018-02-08T17:32:17.015Z,-2.30
2018-02-08T17:34:45.307Z,-2.40
2018-02-08T17:37:12.860Z,-2.40
2018-02-08T17:39:41.154Z,-2.40
2018-02-08T17:42:09.475Z,-2.50
2018-02-08T17:44:37.767Z,-2.50
2018-02-08T17:47:06.080Z,-2.50
2018-02-08T17:49:34.380Z,-2.60
2018-02-08T17:52:01.928Z,-2.60
2018-02-08T17:54:30.224Z,-2.70
2018-02-08T17:56:58.540Z,-2.80
2018-02-08T17:59:26.839Z,-2.80
2018-02-08T18:01:55.152Z,-2.90
2018-02-08T18:04:23.453Z,-2.90
2018-02-08T18:06:51.776Z,-3.00
2018-02-08T18:09:20.109Z,-3.00
2018-02-08T18:11:48.428Z,-3.10
2018-02-08T18:14:16.727Z,-3.10
2018-02-08T18:16:45.012Z,-3.10
2018-02-08T18:19:13.333Z,-3.20
2018-02-08T18:21:41.624Z,-3.20
2018-02-08T18:24:09.946Z,-3.30
2018-02-08T18:26:38.240Z,-3.30
2018-02-08T18:29:06.556Z,-3.40
2018-02-08T18:31:34.856Z,-3.40
2018-02-08T18:34:03.204Z,-3.50
2018-02-08T18:36:31.510Z,-3.50
2018-02-08T18:38:59.833Z,-3.50
2018-02-08T18:41:28.132Z,-3.50
2018-02-08T18:43:56.496Z,-3.60
2018-02-08T18:46:24.031Z,-3.60
2018-02-08T18:48:52.348Z,-3.70
2018-02-08T18:51:20.646Z,-3.70
2018-02-08T18:53:48.244Z,-3.70
2018-02-08T18:56:16.536Z,-3.70
2018-02-08T18:58:44.857Z,-3.70
2018-02-08T19:01:13.153Z,-3.80
2018-02-08T19:03:41.468Z,-3.80
2018-02-08T19:06:09.832Z,-3.90
2018-02-08T19:08:39.133Z,-3.90
2018-02-08T19:11:07.436Z,-3.90
2018-02-08T19:13:35.752Z,-4.00
2018-02-08T19:16:04.044Z,-4.00
2018-02-08T19:18:32.370Z,-4.00
2018-02-08T19:21:00.665Z,-4.10
2018-02-08T19:23:28.992Z,-4.10
2018-02-08T19:25:57.282Z,-4.20
2018-02-08T19:28:25.600Z,-4.20
2018-02-08T19:30:53.914Z,-4.20
2018-02-08T19:33:22.248Z,-4.20
2018-02-08T19:35:50.628Z,-4.30
2018-02-08T19:38:18.192Z,-4.30
2018-02-08T19:40:46.523Z,-4.30
2018-02-08T19:43:14.843Z,-4.40
2018-02-08T19:45:43.156Z,-4.40
2018-02-08T19:48:11.476Z,-4.40
2018-02-08T19:50:39.766Z,-4.40
2018-02-08T19:53:07.308Z,-4.40
2018-02-08T19:55:35.632Z,-4.40
2018-02-08T19:58:03.988Z,-4.50
2018-02-08T20:00:32.470Z,-4.50
2018-02-08T20:03:00.801Z,-4.60
2018-02-08T20:05:29.124Z,-4.60
2018-02-08T20:07:57.417Z,-4.60
2018-02-08T20:10:25.737Z,-4.70
2018-02-08T20:12:54.032Z,-4.70
2018-02-08T20:15:36.202Z,-4.70
2018-02-08T20:18:04.615Z,-4.80
2018-02-08T20:20:32.928Z,-4.80
2018-02-08T20:23:01.224Z,-4.90
2018-02-08T20:25:35.114Z,-4.90
2018-02-08T20:28:03.420Z,-5.00
2018-02-08T20:30:31.764Z,-5.00
2018-02-08T20:33:00.091Z,-5.00
2018-02-08T20:35:28.409Z,-5.10
2018-02-08T20:37:56.710Z,-5.10
2018-02-08T20:40:25.693Z,-5.10
2018-02-08T20:42:59.584Z,-5.20
2018-02-08T20:45:27.903Z,-5.20
2018-02-08T20:47:55.441Z,-5.20
2018-02-08T20:50:23.761Z,-5.20
2018-02-08T20:52:51.284Z,-5.30
2018-02-08T20:55:19.601Z,-5.30
2018-02-08T20:57:47.943Z,-5.30
2018-02-08T21:00:16.260Z,-5.30
2018-02-08T21:02:44.552Z,-5.40
2018-02-08T21:05:12.100Z,-5.40
2018-02-08T21:07:40.524Z,-5.40
2018-02-08T21:10:08.893Z,-5.40
2018-02-08T21:12:37.198Z,-5.40
2018-02-08T21:15:05.520Z,-5.40
2018-02-08T21:17:33.829Z,-5.50
2018-02-08T21:20:02.150Z,-5.50
2018-02-08T21:22:30.512Z,-5.50
2018-02-08T21:24:58.795Z,-5.50
2018-02-08T21:27:27.128Z,-5.60
2018-02-08T21:29:55.443Z,-5.60
2018-02-08T21:32:23.744Z,-5.60
2018-02-08T21:34:52.064Z,-5.60
2018-02-08T21:37:20.361Z,-5.70
2018-02-08T21:39:48.681Z,-5.70
2018-02-08T21:42:16.980Z,-5.80
2018-02-08T21:44:45.288Z,-5.80
2018-02-08T21:47:13.583Z,-5.80
2018-02-08T21:49:41.879Z,-5.90
2018-02-08T21:52:10.197Z,-5.90
2018-02-08T21:54:38.500Z,-5.90
2018-02-08T21:57:06.832Z,-5.90
2018-02-08T21:59:35.144Z,-6.00
2018-02-08T22:02:02.696Z,-6.00
2018-02-08T22:04:30.983Z,-6.00
2018-02-08T22:06:58.535Z,-6.10
2018-02-08T22:09:26.859Z,-6.10
2018-02-08T22:11:55.175Z,-6.10
2018-02-08T22:14:23.483Z,-6.10
2018-02-08T22:16:51.804Z,-6.10
2018-02-08T22:19:20.104Z,-6.10
2018-02-08T22:21:48.429Z,-6.10
2018-02-08T22:24:16.740Z,-6.20
2018-02-08T22:26:45.053Z,-6.20
2018-02-08T22:29:13.343Z,-6.20
2018-02-08T22:31:41.660Z,-6.20
2018-02-08T22:34:09.958Z,-6.30
2018-02-08T22:36:38.273Z,-6.30
2018-02-08T22:39:06.571Z,-6.40
2018-02-08T22:41:34.893Z,-6.40
2018-02-08T22:44:03.200Z,-6.40
2018-02-08T22:46:31.521Z,-6.50
2018-02-08T22:48:59.821Z,-6.50
2018-02-08T22:51:28.139Z,-6.50
2018-02-08T22:53:56.431Z,-6.50
2018-02-08T22:56:24.739Z,-6.50
2018-02-08T22:58:53.037Z,-6.50
2018-02-08T23:01:21.353Z,-6.60
2018-02-08T23:03:49.643Z,-6.60
2018-02-08T23:06:17.967Z,-6.60
2018-02-08T23:08:46.259Z,-6.60
2018-02-08T23:11:14.579Z,-6.60
2018-02-08T23:13:42.877Z,-6.60
2018-02-08T23:16:11.404Z,-6.70
2018-02-08T23:18:39.708Z,-6.70
2018-02-08T23:21:08.023Z,-6.70
2018-02-08T23:23:36.316Z,-6.70
2018-02-08T23:26:04.638Z,-6.70
2018-02-08T23:28:32.960Z,-6.80
2018-02-08T23:31:01.261Z,-6.80
2018-02-08T23:33:29.571Z,-6.80
2018-02-08T23:35:57.863Z,-6.90
2018-02-08T23:38:26.180Z,-6.90
2018-02-08T23:40:53.719Z,-6.90
2018-02-08T23:43:22.027Z,-6.90
2018-02-08T23:45:50.328Z,-6.90
2018-02-08T23:48:18.643Z,-7.00
2018-02-08T23:50:46.944Z,-7.00
2018-02-08T23:53:15.260Z,-7.00
2018-02-08T23:55:43.552Z,-7.00
2018-02-08T23:58:11.864Z,-7.00
